Details From EHGG - Eelde
To EHRD - Rotterdam
Flight Number -
Tags Generated
Created
Modified
Stats Distance 105 nm / 195 km
Max Altitude 0 ft / 0 m
Waypoints 2
Social Downloads 3
Likes 0
Share VATSIM

Download

Looking for another format? Having issues loading an existing format? Contact us
Advertisement - Login to hide

Notes

Generated

Route

EHGG EHRD

ID Type Via Altitude Latitude Longitude Leg Dist Tot Dist Heading (true) Name
O EHGG APT - 0 ft / 0 m 53.11738˚ 6.57688˚ - 0 nm - Eelde
O EHRD APT - 0 ft / 0 m 51.95209˚ 4.42824˚ 105 nm 105 nm 229° / 227° -

Altitude Profile

Advertisement - Login to hide

EHGG

Details ICAO EHGG (GRQ)
Name Eelde
Region Netherlands
Timezone Europe/Amsterdam (UTC+2.0)
Stats Elevation 17 ft / 5 m (AMSL)
Location 53.121033° 6.577073°
Runways 2
Magnetic Variation 1.752° E

METAR

EHGG 212055Z AUTO 06004KT 9999 NCD 15/07 Q1014

Decode

TAF

TAF EHGG 211723Z 2118/2224 10010KT CAVOK BECMG 2118/2120 07007KT

Decode

Departure Runways

ID Width Length Bearing (true) Bearing (mag) Surface Threshold Offset Overrun Length
01 148 ft / 45 m 4,918 ft / 1,499 m 8.73° 6.98° Asphalt 0 ft / 0 m 0 ft / 0 m
05 148 ft / 45 m 8,185 ft / 2,495 m 51.78° 50.03° Asphalt 0 ft / 0 m 98 ft / 30 m
19 148 ft / 45 m 4,918 ft / 1,499 m 188.74° 186.99° Asphalt 0 ft / 0 m 0 ft / 0 m
23 148 ft / 45 m 8,185 ft / 2,495 m 231.81° 230.06° Asphalt 0 ft / 0 m 98 ft / 30 m

EHRD

Details ICAO EHRD (RTM)
Name Rotterdam The Hague
Region Netherlands
Timezone Europe/Amsterdam (UTC+2.0)
Stats Elevation -15 ft / -5 m (AMSL)
Location 51.957468° 4.441662°
Runways 1
Magnetic Variation 1.109° E

METAR

EHRD 212055Z AUTO 07005KT 9999 NSC 19/11 Q1012 NOSIG

Decode

TAF

TAF EHRD 211720Z 2118/2224 07007KT CAVOK PROB30 TEMPO 2119/2207 7000 -SHRA FEW050CB PROB40 TEMPO 2215/2222 03013G23KT 6000 SHRA TSRA SCT040CB

Decode

Destination Runways

ID Width Length Bearing (true) Bearing (mag) Surface Threshold Offset Overrun Length
06 148 ft / 45 m 7,201 ft / 2,195 m 56.93° 55.82° Asphalt 656 ft / 200 m 0 ft / 0 m
24 148 ft / 45 m 7,201 ft / 2,195 m 236.95° 235.84° Asphalt 656 ft / 200 m 0 ft / 0 m

Approach Navaids

Runway Type Ident Frequency Range Bearing (true) Bearing (mag) Slope Elevation
06 Localiser ROS 110.90 MHz 18 nm / 33 km 56.94° 55.83° - -15 ft / -5 m (AMSL)
06 Glidescope ROS 110.90 MHz 15 nm / 28 km 56.94° 55.83° 3.00° -15 ft / -5 m (AMSL)
06 DME ROS 110.90 MHz 18 nm / 33 km - - - -15 ft / -5 m (AMSL)
24 Localiser RSV 110.90 MHz 18 nm / 33 km 236.94° 235.83° - -15 ft / -5 m (AMSL)
24 Glidescope RSV 110.90 MHz 15 nm / 28 km 236.94° 235.83° 3.00° -15 ft / -5 m (AMSL)
24 DME RSV 110.90 MHz 18 nm / 33 km - - - -15 ft / -5 m (AMSL)

Popular Alternatives